Time;durP1;ratioP1;P1;durP2;ratioP2;P2;SDS_P1;SDS_P2;PMS_P1;PMS_P2;Temp;Humidity;BMP_temperature;BMP_pressure;BME280_temperature;BME280_humidity;BME280_pressure;Samples;Min_cycle;Max_cycle;Signal;HPM_P1;HPM_P2
2021/09/05 00:00:58;;;;;;;11.73;7.95;;;18.40;82.60;;;;;;5085789;28;20016;-70
2021/09/05 00:03:23;;;;;;;17.85;8.77;;;18.50;82.60;;;;;;5085661;28;20032;-71
2021/09/05 00:05:49;;;;;;;14.57;9.13;;;18.40;82.30;;;;;;5085998;28;20071;-71
2021/09/05 00:08:15;;;;;;;13.32;9.05;;;18.40;82.50;;;;;;5085806;28;20028;-70
2021/09/05 00:10:40;;;;;;;11.48;8.02;;;18.40;82.50;;;;;;5085891;28;20024;-70
2021/09/05 00:13:06;;;;;;;12.00;8.80;;;18.30;82.70;;;;;;5085880;28;20028;-71
2021/09/05 00:15:32;;;;;;;11.98;8.48;;;18.40;82.50;;;;;;5085721;28;20035;-70
2021/09/05 00:17:57;;;;;;;15.05;9.05;;;18.40;82.40;;;;;;5084069;28;20110;-71
2021/09/05 00:20:23;;;;;;;14.90;7.63;;;18.40;82.30;;;;;;5088853;28;20035;-69
2021/09/05 00:22:49;;;;;;;12.00;8.52;;;18.40;82.30;;;;;;5087743;28;20115;-70
2021/09/05 00:25:16;;;;;;;14.88;8.93;;;18.30;82.50;;;;;;5089199;28;20488;-70
2021/09/05 00:27:41;;;;;;;11.70;8.68;;;18.40;82.40;;;;;;5088949;28;20107;-70
2021/09/05 00:30:08;;;;;;;13.55;10.02;;;18.30;82.20;;;;;;5088767;28;20165;-71
2021/09/05 00:32:33;;;;;;;13.52;8.77;;;18.30;82.40;;;;;;5087530;28;20567;-71
2021/09/05 00:34:59;;;;;;;14.25;9.13;;;18.30;82.50;;;;;;5089386;28;20043;-71
2021/09/05 00:37:25;;;;;;;13.93;9.32;;;18.30;82.40;;;;;;5088817;28;20027;-71
2021/09/05 00:39:50;;;;;;;11.82;8.70;;;18.20;82.50;;;;;;5087913;28;20027;-71
2021/09/05 00:42:28;;;;;;;13.48;8.10;;;18.30;82.60;;;;;;5088169;28;20532;-71
2021/09/05 00:44:54;;;;;;;13.70;9.32;;;18.20;82.60;;;;;;5089141;28;20098;-71
2021/09/05 00:47:20;;;;;;;13.23;9.02;;;18.10;83.00;;;;;;5088544;28;20028;-70
2021/09/05 00:49:47;;;;;;;13.90;9.07;;;18.20;82.60;;;;;;5088946;28;20475;-71
2021/09/05 00:52:14;;;;;;;12.50;8.93;;;18.20;82.80;;;;;;5087226;28;20024;-70
2021/09/05 00:54:41;;;;;;;14.70;8.95;;;18.20;82.70;;;;;;5088400;28;20134;-69
2021/09/05 00:57:12;;;;;;;14.10;9.20;;;18.20;82.30;;;;;;5088193;28;20082;-71
2021/09/05 00:59:42;;;;;;;16.15;9.32;;;18.20;82.20;;;;;;5087366;28;20512;-70
2021/09/05 01:02:08;;;;;;;15.52;9.73;;;18.10;82.40;;;;;;5087870;28;20034;-70
2021/09/05 01:04:34;;;;;;;15.35;9.88;;;18.10;82.40;;;;;;5088377;28;20374;-68
2021/09/05 01:06:59;;;;;;;13.77;9.45;;;18.20;82.10;;;;;;5087395;28;20499;-69
2021/09/05 01:09:27;;;;;;;15.23;8.77;;;18.10;82.00;;;;;;5087872;28;20028;-71
2021/09/05 01:11:53;;;;;;;15.02;9.23;;;18.10;81.80;;;;;;5088489;28;20039;-71
2021/09/05 01:14:19;;;;;;;14.02;9.15;;;18.10;82.00;;;;;;5070549;28;20074;-71
2021/09/05 01:16:45;;;;;;;15.30;9.98;;;18.10;82.10;;;;;;5088156;28;20085;-70
2021/09/05 01:19:16;;;;;;;15.73;10.00;;;18.10;81.60;;;;;;5087901;28;20020;-68
2021/09/05 01:21:43;;;;;;;14.43;9.75;;;18.10;81.40;;;;;;5088563;28;20035;-69
2021/09/05 01:24:10;;;;;;;17.50;10.90;;;18.10;81.40;;;;;;5088127;28;20027;-70
2021/09/05 01:26:37;;;;;;;12.65;9.30;;;18.10;81.40;;;;;;5088315;28;20032;-70
2021/09/05 01:29:04;;;;;;;15.45;10.60;;;18.00;81.40;;;;;;5088002;28;20103;-69
2021/09/05 01:31:48;;;;;;;14.50;10.35;;;18.00;81.30;;;;;;5087339;28;20028;-71
2021/09/05 01:34:16;;;;;;;15.63;9.50;;;18.10;81.10;;;;;;5088271;28;20093;-69
2021/09/05 01:36:43;;;;;;;13.98;9.30;;;18.00;81.10;;;;;;5087494;28;20121;-70
2021/09/05 01:39:11;;;;;;;12.50;8.95;;;18.00;81.30;;;;;;5087637;28;20084;-70
2021/09/05 01:41:37;;;;;;;12.30;9.07;;;18.00;80.90;;;;;;5087551;28;20032;-68
2021/09/05 01:44:06;;;;;;;19.30;10.00;;;18.00;80.70;;;;;;5086775;28;20048;-70
2021/09/05 01:46:32;;;;;;;13.73;9.25;;;18.00;81.00;;;;;;5083690;28;20032;-70
2021/09/05 01:48:58;;;;;;;16.98;10.10;;;18.00;81.00;;;;;;5081249;28;20036;-69
2021/09/05 01:51:24;;;;;;;17.10;9.70;;;18.00;81.00;;;;;;5086632;28;20032;-69
2021/09/05 01:53:49;;;;;;;18.75;11.02;;;17.90;80.80;;;;;;5086285;28;20100;-69
2021/09/05 01:56:15;;;;;;;16.75;9.57;;;17.90;80.70;;;;;;5086088;28;20072;-70
2021/09/05 01:58:41;;;;;;;12.73;8.90;;;18.00;80.60;;;;;;5082032;28;20040;-69
2021/09/05 02:01:07;;;;;;;14.10;9.18;;;18.00;80.60;;;;;;5083892;28;20552;-69
2021/09/05 02:03:33;;;;;;;11.27;8.68;;;17.90;80.30;;;;;;5086397;28;20614;-70
2021/09/05 02:05:58;;;;;;;14.00;8.77;;;18.00;79.90;;;;;;5085620;28;20021;-70
2021/09/05 02:08:24;;;;;;;16.70;9.18;;;18.00;80.00;;;;;;5082894;28;20079;-70
2021/09/05 02:10:50;;;;;;;15.10;9.25;;;18.00;80.30;;;;;;5083561;28;20170;-70
2021/09/05 02:13:15;;;;;;;13.60;9.63;;;17.90;80.50;;;;;;5084039;28;20079;-72
2021/09/05 02:15:41;;;;;;;18.83;9.13;;;17.90;80.60;;;;;;5083864;28;20047;-70
2021/09/05 02:18:07;;;;;;;14.20;9.30;;;17.90;80.80;;;;;;5086310;28;20047;-71
2021/09/05 02:20:33;;;;;;;14.25;9.45;;;17.80;80.60;;;;;;5083435;28;20454;-70
2021/09/05 02:22:58;;;;;;;12.15;8.52;;;17.90;80.30;;;;;;5085798;28;20173;-70
2021/09/05 02:25:24;;;;;;;11.38;8.40;;;17.90;80.10;;;;;;5085450;28;20110;-69
2021/09/05 02:27:50;;;;;;;17.30;8.57;;;17.90;80.20;;;;;;5086019;28;20032;-69
2021/09/05 02:30:16;;;;;;;12.75;8.80;;;17.90;80.40;;;;;;5085750;28;20701;-69
2021/09/05 02:32:41;;;;;;;17.15;9.50;;;17.90;80.40;;;;;;5085304;28;20039;-70
2021/09/05 02:35:08;;;;;;;14.63;9.45;;;17.80;80.50;;;;;;5085414;28;20039;-70
2021/09/05 02:37:37;;;;;;;15.23;8.88;;;17.70;80.80;;;;;;5085924;28;20027;-70
2021/09/05 02:40:04;;;;;;;13.35;8.98;;;17.70;80.80;;;;;;5083536;28;20430;-70
2021/09/05 02:42:33;;;;;;;13.23;8.65;;;17.70;80.60;;;;;;5085988;28;20405;-71
2021/09/05 02:45:06;;;;;;;13.50;8.88;;;17.60;80.30;;;;;;5086810;28;20404;-71
2021/09/05 02:47:33;;;;;;;16.88;9.10;;;17.60;80.60;;;;;;5085193;28;20496;-69
2021/09/05 02:49:59;;;;;;;13.05;8.75;;;17.60;80.30;;;;;;5085145;28;20031;-70
2021/09/05 02:52:25;;;;;;;11.40;8.38;;;17.60;80.50;;;;;;5086716;28;20024;-70
2021/09/05 02:54:51;;;;;;;13.75;8.63;;;17.60;80.60;;;;;;5086570;28;20052;-71
2021/09/05 02:57:17;;;;;;;16.35;8.57;;;17.50;80.60;;;;;;5086211;28;20096;-71
2021/09/05 02:59:43;;;;;;;12.43;8.45;;;17.50;80.80;;;;;;5086604;28;20035;-72
2021/09/05 03:02:08;;;;;;;14.88;9.10;;;17.50;80.70;;;;;;5086293;28;20051;-71
2021/09/05 03:04:34;;;;;;;19.80;9.38;;;17.50;80.70;;;;;;5086225;28;20058;-71
2021/09/05 03:06:59;;;;;;;12.40;8.60;;;17.40;80.90;;;;;;5086384;28;20020;-72
2021/09/05 03:09:25;;;;;;;12.85;7.82;;;17.40;81.10;;;;;;5085161;28;20028;-71
2021/09/05 03:11:51;;;;;;;;;;;17.40;81.40;;;;;;5086496;28;20568;-71
2021/09/05 03:14:16;;;;;;;12.13;8.48;;;17.30;81.50;;;;;;5086171;28;19912;-71
2021/09/05 03:16:42;;;;;;;;;;;17.20;81.80;;;;;;5086379;28;20063;-71
2021/09/05 03:19:08;;;;;;;12.63;8.70;;;17.20;82.10;;;;;;5086368;28;19976;-71
2021/09/05 03:21:34;;;;;;;;;;;17.20;82.50;;;;;;5086879;28;20024;-70
2021/09/05 03:23:59;;;;;;;13.13;8.57;;;17.10;82.70;;;;;;5086282;28;19908;-71
2021/09/05 03:26:25;;;;;;;12.13;8.68;;;17.10;83.10;;;;;;5086353;28;20514;-71
2021/09/05 03:28:51;;;;;;;13.77;9.90;;;17.10;83.20;;;;;;5085987;28;20781;-71
2021/09/05 03:31:16;;;;;;;13.40;8.57;;;17.00;83.40;;;;;;5085652;28;20408;-71
2021/09/05 03:33:42;;;;;;;;;;;17.00;83.80;;;;;;5085749;28;20024;-72
2021/09/05 03:36:08;;;;;;;15.07;8.18;;;16.90;84.20;;;;;;5086036;28;20851;-71
2021/09/05 03:38:33;;;;;;;;;;;16.90;84.20;;;;;;5086916;28;20032;-71
2021/09/05 03:40:59;;;;;;;11.55;8.70;;;16.90;84.40;;;;;;5085813;28;20277;-70
2021/09/05 03:43:24;;;;;;;;;;;16.90;84.50;;;;;;5085435;28;20060;-71
2021/09/05 03:45:50;;;;;;;14.52;9.27;;;16.90;84.60;;;;;;5084194;28;20708;-72
2021/09/05 03:48:16;;;;;;;;;;;16.90;84.60;;;;;;5086613;28;20024;-70
2021/09/05 03:50:41;;;;;;;14.27;9.23;;;16.90;84.60;;;;;;5085721;28;19995;-71
2021/09/05 03:53:07;;;;;;;;;;;16.80;84.70;;;;;;5086459;28;20024;-71
2021/09/05 03:55:33;;;;;;;13.43;8.52;;;16.80;84.90;;;;;;5089405;28;19953;-72
2021/09/05 03:57:58;;;;;;;;;;;16.80;85.00;;;;;;5088931;28;20399;-71
2021/09/05 04:00:24;;;;;;;12.40;8.73;;;16.70;85.00;;;;;;5089122;28;19916;-70
2021/09/05 04:02:50;;;;;;;12.60;9.02;;;16.70;85.00;;;;;;5089810;28;20020;-71
2021/09/05 04:05:16;;;;;;;12.50;8.05;;;16.70;84.90;;;;;;5088344;28;20107;-71
2021/09/05 04:08:00;;;;;;;13.30;8.88;;;16.70;84.30;;;;;;5089189;28;20447;-72
2021/09/05 04:10:27;;;;;;;13.43;9.40;;;16.80;84.20;;;;;;5089627;28;20099;-70
2021/09/05 04:12:52;;;;;;;12.23;8.90;;;16.80;84.10;;;;;;5088936;28;20032;-72
2021/09/05 04:15:18;;;;;;;11.55;8.30;;;16.80;83.90;;;;;;5087664;28;20527;-72
2021/09/05 04:17:43;;;;;;;13.82;8.70;;;16.70;83.90;;;;;;5089410;28;20092;-71
2021/09/05 04:20:10;;;;;;;12.05;8.23;;;16.70;83.90;;;;;;5089625;28;20028;-72
2021/09/05 04:22:35;;;;;;;13.85;9.35;;;16.70;83.50;;;;;;5088434;28;20538;-72
2021/09/05 04:25:03;;;;;;;12.70;9.02;;;16.80;83.50;;;;;;5089287;28;20020;-71
2021/09/05 04:27:28;;;;;;;12.75;8.15;;;16.70;83.50;;;;;;5089427;28;20034;-71
2021/09/05 04:29:54;;;;;;;16.10;10.90;;;16.70;83.30;;;;;;5089185;28;20095;-72
2021/09/05 04:32:20;;;;;;;;;;;16.70;84.00;;;;;;5089627;28;20036;-70
2021/09/05 04:34:49;;;;;;;15.85;10.13;;;16.70;84.00;;;;;;5088782;28;19908;-72
2021/09/05 04:37:19;;;;;;;14.32;9.68;;;16.60;85.10;;;;;;5089024;28;20038;-71
2021/09/05 04:39:49;;;;;;;16.60;10.38;;;16.60;85.70;;;;;;5088895;28;20028;-70
2021/09/05 04:42:15;;;;;;;15.98;8.88;;;16.50;86.60;;;;;;5089072;28;20103;-72
2021/09/05 04:44:41;;;;;;;13.52;9.15;;;16.40;86.60;;;;;;5088543;28;20123;-71
2021/09/05 04:47:07;;;;;;;16.40;10.00;;;16.40;86.50;;;;;;5088913;28;20077;-71
2021/09/05 04:49:32;;;;;;;;;;;16.40;87.10;;;;;;5089332;28;20107;-71
2021/09/05 04:51:59;;;;;;;15.13;8.45;;;16.40;87.70;;;;;;5088404;28;19908;-71
2021/09/05 04:54:24;;;;;;;14.20;8.63;;;16.50;87.10;;;;;;5088722;28;20571;-71
2021/09/05 04:56:50;;;;;;;;;;;16.50;86.80;;;;;;5088663;28;20138;-72
2021/09/05 04:59:16;;;;;;;11.95;8.20;;;16.60;87.40;;;;;;5087265;28;19908;-71
2021/09/05 05:01:41;;;;;;;16.33;7.97;;;16.60;87.20;;;;;;5088892;28;20042;-71
2021/09/05 05:04:07;;;;;;;15.07;8.63;;;16.80;86.60;;;;;;5088290;28;20028;-72
2021/09/05 05:06:33;;;;;;;13.93;8.63;;;17.10;85.50;;;;;;5088323;28;20116;-72
2021/09/05 05:08:59;;;;;;;11.98;8.55;;;17.20;84.60;;;;;;5088887;28;20035;-71
2021/09/05 05:11:25;;;;;;;12.02;8.30;;;17.30;83.70;;;;;;5088372;28;20031;-72
2021/09/05 05:13:52;;;;;;;15.95;8.25;;;17.50;82.90;;;;;;5087673;28;20032;-72
2021/09/05 05:16:18;;;;;;;12.57;7.88;;;18.10;80.30;;;;;;5088529;28;20122;-71
2021/09/05 05:18:44;;;;;;;12.70;7.97;;;18.70;78.80;;;;;;5088470;28;20024;-72
2021/09/05 05:21:10;;;;;;;12.95;8.02;;;19.20;77.10;;;;;;5086368;28;20295;-72
2021/09/05 05:23:36;;;;;;;11.98;8.15;;;19.60;75.20;;;;;;5088211;28;20028;-72
2021/09/05 05:26:02;;;;;;;11.43;7.68;;;20.00;72.60;;;;;;5087009;28;20044;-72
2021/09/05 05:28:28;;;;;;;11.45;7.30;;;20.40;70.80;;;;;;5087379;28;20081;-72
2021/09/05 05:30:54;;;;;;;9.45;7.00;;;20.80;68.10;;;;;;5086884;28;20032;-72
2021/09/05 05:33:19;;;;;;;10.35;7.57;;;21.10;68.00;;;;;;5087965;28;20485;-72
2021/09/05 05:35:45;;;;;;;12.32;7.30;;;21.30;65.90;;;;;;5086322;28;20436;-72
2021/09/05 05:38:11;;;;;;;10.13;7.90;;;21.60;64.80;;;;;;5088028;28;20507;-72
2021/09/05 05:40:37;;;;;;;11.07;6.85;;;21.80;62.80;;;;;;5087843;28;20583;-71
2021/09/05 05:43:03;;;;;;;9.02;6.97;;;22.00;61.30;;;;;;5087940;28;20484;-72
2021/09/05 05:45:29;;;;;;;9.38;7.43;;;22.20;61.20;;;;;;5086973;28;20073;-72
2021/09/05 05:47:55;;;;;;;8.90;7.15;;;22.40;61.80;;;;;;5087678;28;20501;-72
2021/09/05 05:50:21;;;;;;;9.05;6.40;;;22.50;60.30;;;;;;5087930;28;20613;-72
2021/09/05 05:52:47;;;;;;;11.80;7.03;;;22.60;59.20;;;;;;5085915;28;20036;-73
2021/09/05 05:55:13;;;;;;;9.80;6.65;;;22.80;58.60;;;;;;5086960;28;20032;-72
2021/09/05 05:57:39;;;;;;;10.50;7.13;;;22.90;59.50;;;;;;5087631;28;20449;-73
2021/09/05 06:00:05;;;;;;;8.43;6.18;;;22.90;58.10;;;;;;5085751;28;20024;-72
2021/09/05 06:02:31;;;;;;;10.00;6.50;;;23.00;58.50;;;;;;5087186;28;20479;-72
2021/09/05 06:04:56;;;;;;;10.80;6.82;;;23.20;57.10;;;;;;5086099;28;20028;-72
2021/09/05 06:07:22;;;;;;;9.25;7.03;;;23.40;56.60;;;;;;5086811;28;20039;-73
2021/09/05 06:09:48;;;;;;;9.25;6.13;;;23.60;54.00;;;;;;5087368;28;20039;-71
2021/09/05 06:12:13;;;;;;;13.90;6.57;;;23.70;53.60;;;;;;5087132;28;20395;-72
2021/09/05 06:14:39;;;;;;;11.32;6.57;;;24.00;52.70;;;;;;5086782;28;20056;-73
2021/09/05 06:17:04;;;;;;;8.70;6.85;;;24.20;51.70;;;;;;5084588;28;20551;-72
2021/09/05 06:19:31;;;;;;;9.82;6.22;;;24.60;51.30;;;;;;5086097;28;20088;-72
2021/09/05 06:21:56;;;;;;;7.50;5.93;;;25.00;49.60;;;;;;5086050;28;20384;-72
2021/09/05 06:24:22;;;;;;;6.55;5.85;;;25.20;48.60;;;;;;5086586;28;20028;-72
2021/09/05 06:26:48;;;;;;;10.80;5.80;;;25.50;46.70;;;;;;5086811;28;20137;-72
2021/09/05 06:29:14;;;;;;;8.77;5.95;;;25.60;45.30;;;;;;5085974;28;20031;-72
2021/09/05 06:31:40;;;;;;;6.68;5.53;;;25.70;45.70;;;;;;5086769;28;20032;-73
2021/09/05 06:34:06;;;;;;;7.07;5.72;;;25.80;44.20;;;;;;5086770;28;20039;-72
2021/09/05 06:36:32;;;;;;;6.50;5.18;;;25.40;44.10;;;;;;5085296;28;20059;-72
2021/09/05 06:38:58;;;;;;;8.40;5.50;;;25.20;44.40;;;;;;5085046;28;20488;-70
2021/09/05 06:41:24;;;;;;;5.75;4.80;;;25.50;43.50;;;;;;5086152;28;20024;-71
2021/09/05 06:43:49;;;;;;;8.40;5.78;;;26.00;43.10;;;;;;5085793;28;20024;-71
2021/09/05 06:46:15;;;;;;;7.75;5.10;;;25.90;42.60;;;;;;5085365;28;20035;-70
2021/09/05 06:48:42;;;;;;;6.82;4.95;;;26.10;40.90;;;;;;5085048;28;20024;-70
2021/09/05 06:51:09;;;;;;;6.22;5.03;;;25.70;40.90;;;;;;5086637;28;20050;-70
2021/09/05 06:53:35;;;;;;;5.80;4.75;;;26.00;40.60;;;;;;5086505;28;20541;-70
2021/09/05 06:56:00;;;;;;;10.95;4.68;;;25.80;39.60;;;;;;5085173;28;20131;-70
2021/09/05 06:58:26;;;;;;;9.25;5.00;;;25.80;40.00;;;;;;5086090;28;20043;-71
2021/09/05 07:00:52;;;;;;;6.80;4.65;;;25.80;40.40;;;;;;5086686;28;20043;-70
2021/09/05 07:03:18;;;;;;;6.75;4.80;;;26.10;40.30;;;;;;5085927;28;20019;-70
2021/09/05 07:05:43;;;;;;;7.78;4.90;;;26.60;40.30;;;;;;5086621;28;20032;-69
2021/09/05 07:08:09;;;;;;;11.18;4.63;;;26.90;38.80;;;;;;5086105;28;20032;-71
2021/09/05 07:10:36;;;;;;;8.57;4.78;;;27.00;39.20;;;;;;5086505;28;20028;-69
2021/09/05 07:13:02;;;;;;;6.38;4.45;;;26.80;38.60;;;;;;5085962;28;20032;-70
2021/09/05 07:15:28;;;;;;;6.53;4.47;;;27.00;38.70;;;;;;5085170;28;20816;-70
2021/09/05 07:17:53;;;;;;;6.03;3.90;;;27.10;37.80;;;;;;5085976;28;20021;-70
2021/09/05 07:20:19;;;;;;;9.13;4.35;;;27.50;37.30;;;;;;5086262;28;20596;-70
2021/09/05 07:22:45;;;;;;;7.45;4.63;;;27.50;36.20;;;;;;5085969;28;20343;-71
2021/09/05 07:25:11;;;;;;;4.28;3.88;;;27.30;36.80;;;;;;5084706;28;20024;-70
2021/09/05 07:27:37;;;;;;;5.88;4.40;;;27.70;36.90;;;;;;5085917;28;20137;-71
2021/09/05 07:30:07;;;;;;;8.02;4.38;;;27.90;35.20;;;;;;5089023;28;20069;-69
2021/09/05 07:32:33;;;;;;;6.53;4.65;;;27.70;34.90;;;;;;5089951;28;20036;-70
2021/09/05 07:34:59;;;;;;;4.75;3.60;;;27.50;35.40;;;;;;5090426;28;20032;-70
2021/09/05 07:37:25;;;;;;;4.90;3.78;;;27.90;35.10;;;;;;5090161;28;20042;-70
2021/09/05 07:39:50;;;;;;;5.45;3.65;;;27.60;35.40;;;;;;5089973;28;20348;-70
2021/09/05 07:42:16;;;;;;;5.05;4.07;;;27.60;35.70;;;;;;5089904;28;20131;-70
2021/09/05 07:44:42;;;;;;;7.43;3.63;;;27.80;35.00;;;;;;5090041;28;20031;-70
2021/09/05 07:47:07;;;;;;;5.47;4.10;;;28.00;34.60;;;;;;5089945;28;20575;-70
2021/09/05 07:49:33;;;;;;;5.03;3.60;;;28.10;34.10;;;;;;5089999;28;20020;-70
2021/09/05 07:51:59;;;;;;;5.45;3.67;;;28.30;33.80;;;;;;5089837;28;20541;-70
2021/09/05 07:54:25;;;;;;;4.65;3.13;;;28.10;34.10;;;;;;5089628;28;20052;-71
2021/09/05 07:56:50;;;;;;;8.48;3.75;;;27.90;33.90;;;;;;5089473;28;20028;-70
2021/09/05 07:59:16;;;;;;;6.75;3.67;;;28.10;33.90;;;;;;5089570;28;20103;-69
2021/09/05 08:01:42;;;;;;;5.15;3.30;;;28.20;33.90;;;;;;5089692;28;20458;-70
2021/09/05 08:04:08;;;;;;;7.28;4.40;;;28.40;33.40;;;;;;5089439;28;20028;-71
2021/09/05 08:06:34;;;;;;;6.40;3.70;;;28.10;34.20;;;;;;5089590;28;20035;-70
2021/09/05 08:08:59;;;;;;;5.38;3.50;;;28.50;33.00;;;;;;5089841;28;20492;-71
2021/09/05 08:11:26;;;;;;;5.03;3.25;;;28.50;33.30;;;;;;5088871;28;20024;-70
2021/09/05 08:13:52;;;;;;;6.50;3.55;;;28.30;32.90;;;;;;5089182;28;20103;-70
2021/09/05 08:16:18;;;;;;;7.60;4.38;;;28.70;33.10;;;;;;5089198;28;20559;-69
2021/09/05 08:18:44;;;;;;;8.75;3.45;;;28.50;33.30;;;;;;5089558;28;20111;-71
2021/09/05 08:21:10;;;;;;;6.55;3.95;;;28.30;33.40;;;;;;5088809;28;20028;-70
2021/09/05 08:23:38;;;;;;;5.10;3.72;;;28.50;33.40;;;;;;5089471;28;20382;-70
2021/09/05 08:26:05;;;;;;;6.22;3.50;;;28.40;33.30;;;;;;5087684;28;20024;-70
2021/09/05 08:28:31;;;;;;;8.10;3.92;;;28.20;33.50;;;;;;5088631;28;20098;-70
2021/09/05 08:30:57;;;;;;;6.03;3.33;;;28.10;33.90;;;;;;5089369;28;20032;-70
2021/09/05 08:33:23;;;;;;;6.90;4.10;;;27.90;34.70;;;;;;5089120;28;20031;-70
2021/09/05 08:35:49;;;;;;;7.03;3.40;;;28.00;34.30;;;;;;5088572;28;20059;-70
2021/09/05 08:38:15;;;;;;;7.35;3.35;;;27.90;33.70;;;;;;5089430;28;20801;-71
2021/09/05 08:40:44;;;;;;;4.40;3.35;;;28.00;34.60;;;;;;5088156;28;20481;-70
2021/09/05 08:43:10;;;;;;;6.20;3.50;;;28.00;34.60;;;;;;5088513;28;20020;-70
2021/09/05 08:45:37;;;;;;;5.28;3.90;;;27.90;35.10;;;;;;5088906;28;20036;-70
2021/09/05 08:48:04;;;;;;;6.88;3.13;;;28.10;35.10;;;;;;5088798;28;20114;-70
2021/09/05 08:50:31;;;;;;;5.03;3.38;;;28.20;34.60;;;;;;5088606;28;20020;-70
2021/09/05 08:52:57;;;;;;;4.90;3.40;;;28.20;34.80;;;;;;5088870;28;20058;-71
2021/09/05 08:55:22;;;;;;;6.25;3.30;;;28.20;34.40;;;;;;5087965;28;20123;-70
2021/09/05 08:57:48;;;;;;;6.30;2.90;;;28.10;34.30;;;;;;5088436;28;20119;-70
2021/09/05 09:00:14;;;;;;;4.80;3.42;;;28.30;34.20;;;;;;5088169;28;20028;-70
2021/09/05 09:02:45;;;;;;;6.13;3.47;;;28.20;34.40;;;;;;5088824;28;20274;-70
2021/09/05 09:05:12;;;;;;;9.20;3.20;;;28.30;34.80;;;;;;5088716;28;20053;-70
2021/09/05 09:07:48;;;;;;;5.85;3.08;;;28.50;33.70;;;;;;5088376;28;20493;-71
2021/09/05 09:10:15;;;;;;;4.22;2.70;;;28.50;34.00;;;;;;5086893;28;20028;-70
2021/09/05 09:12:49;;;;;;;8.02;2.75;;;28.70;32.90;;;;;;5086538;28;20036;-71
2021/09/05 09:15:23;;;;;;;5.28;2.90;;;28.70;33.60;;;;;;5087685;28;20107;-70
2021/09/05 09:17:54;;;;;;;6.45;2.90;;;28.50;32.80;;;;;;5088349;28;20066;-71
2021/09/05 09:20:43;;;;;;;4.70;2.90;;;28.30;34.20;;;;;;5088365;28;20024;-70
2021/09/05 09:23:20;;;;;;;7.10;3.17;;;28.90;33.50;;;;;;5077395;28;20040;-70
2021/09/05 09:26:03;;;;;;;4.10;3.22;;;29.00;34.00;;;;;;5086360;28;20644;-70
2021/09/05 09:28:37;;;;;;;4.88;3.20;;;28.60;33.30;;;;;;5086686;28;20520;-70
2021/09/05 09:31:15;;;;;;;7.80;3.80;;;28.40;33.90;;;;;;5087653;28;20020;-70
2021/09/05 09:33:46;;;;;;;4.65;2.90;;;28.70;33.60;;;;;;5086970;28;20032;-71
2021/09/05 09:36:23;;;;;;;3.15;2.13;;;28.70;32.70;;;;;;5087470;28;20039;-71
2021/09/05 09:38:58;;;;;;;3.15;2.20;;;28.50;32.30;;;;;;5087860;28;20051;-70
2021/09/05 09:41:29;;;;;;;9.85;2.70;;;28.40;32.70;;;;;;5085909;28;20028;-71
2021/09/05 09:43:57;;;;;;;4.68;2.47;;;28.50;33.60;;;;;;5087517;28;20028;-71
2021/09/05 09:46:28;;;;;;;3.97;2.50;;;28.90;32.90;;;;;;5087816;28;20415;-70
2021/09/05 09:49:02;;;;;;;5.03;2.75;;;29.00;31.60;;;;;;5087748;28;20020;-71
2021/09/05 09:51:28;;;;;;;4.93;3.25;;;28.70;32.10;;;;;;5087490;28;20039;-70
2021/09/05 09:53:55;;;;;;;5.20;2.55;;;28.80;32.30;;;;;;5085924;28;20373;-70
2021/09/05 09:56:21;;;;;;;4.65;3.00;;;28.70;32.70;;;;;;5086760;28;20124;-70
2021/09/05 09:58:49;;;;;;;4.05;2.95;;;28.80;32.70;;;;;;5087696;28;20043;-70
2021/09/05 10:01:19;;;;;;;6.00;3.40;;;29.20;33.70;;;;;;5087239;28;20468;-70
2021/09/05 10:03:48;;;;;;;4.72;3.38;;;29.20;32.90;;;;;;5085871;28;20097;-69
2021/09/05 10:06:14;;;;;;;4.32;3.20;;;29.20;33.30;;;;;;5087479;28;20662;-70
2021/09/05 10:08:40;;;;;;;3.63;2.55;;;29.30;32.30;;;;;;5086953;28;20028;-70
2021/09/05 10:11:09;;;;;;;4.70;2.85;;;29.20;31.90;;;;;;5086402;28;20670;-70
2021/09/05 10:13:37;;;;;;;4.57;2.80;;;29.30;31.80;;;;;;5085632;28;20028;-71
2021/09/05 10:16:04;;;;;;;3.00;2.20;;;29.40;32.20;;;;;;5086837;28;20039;-72
2021/09/05 10:18:31;;;;;;;4.35;2.28;;;29.20;30.70;;;;;;5085790;28;20036;-73
2021/09/05 10:20:58;;;;;;;2.88;2.10;;;28.90;30.50;;;;;;5087257;28;20059;-73
2021/09/05 10:23:31;;;;;;;5.07;3.17;;;28.60;32.20;;;;;;5086773;28;20028;-71
2021/09/05 10:26:06;;;;;;;4.47;2.80;;;27.90;34.40;;;;;;5085205;28;20042;-72
2021/09/05 10:28:49;;;;;;;5.03;3.00;;;27.50;34.20;;;;;;5085710;28;20028;-73
2021/09/05 10:31:22;;;;;;;4.13;2.65;;;27.30;33.60;;;;;;5086838;28;20044;-72
2021/09/05 10:33:48;;;;;;;4.30;2.33;;;26.60;33.70;;;;;;5086575;28;20032;-73
2021/09/05 10:36:21;;;;;;;3.50;2.60;;;26.50;34.50;;;;;;5086949;28;20097;-72
2021/09/05 10:38:47;;;;;;;3.67;2.15;;;26.30;35.10;;;;;;5086547;28;20054;-72
2021/09/05 10:41:19;;;;;;;4.82;3.08;;;26.10;35.70;;;;;;5086279;28;20032;-72
2021/09/05 10:43:48;;;;;;;4.78;2.85;;;26.00;35.20;;;;;;5086899;28;20095;-72
2021/09/05 10:46:17;;;;;;;3.70;2.20;;;25.80;35.90;;;;;;5086689;28;20408;-72
2021/09/05 10:48:52;;;;;;;4.28;2.60;;;25.80;37.10;;;;;;5085270;28;20032;-72
2021/09/05 10:51:23;;;;;;;6.15;2.42;;;25.60;36.90;;;;;;5086388;28;20388;-72
2021/09/05 10:53:50;;;;;;;3.47;2.35;;;25.50;37.60;;;;;;5086118;28;20853;-72
2021/09/05 10:56:40;;;;;;;3.38;2.28;;;25.30;36.90;;;;;;5085832;28;20341;-71
2021/09/05 10:59:21;;;;;;;5.95;2.40;;;25.30;36.80;;;;;;5074133;28;20039;-72
2021/09/05 11:01:47;;;;;;;5.00;3.05;;;25.50;37.20;;;;;;5086289;28;20035;-71
2021/09/05 11:04:16;;;;;;;5.88;3.10;;;25.60;37.00;;;;;;5085762;28;20382;-72
2021/09/05 11:06:49;;;;;;;4.07;2.70;;;25.60;37.70;;;;;;5086249;28;20050;-72
2021/09/05 11:09:24;;;;;;;4.65;2.75;;;25.70;37.50;;;;;;5084772;28;20024;-72
2021/09/05 11:12:07;;;;;;;4.30;2.40;;;25.70;36.70;;;;;;5084671;28;20064;-71
2021/09/05 11:14:35;;;;;;;4.35;2.40;;;25.60;36.80;;;;;;5086356;28;20115;-72
2021/09/05 11:17:07;;;;;;;4.07;2.42;;;25.60;37.80;;;;;;5084379;28;20028;-71
2021/09/05 11:19:46;;;;;;;4.10;2.33;;;25.60;37.30;;;;;;5084559;28;20028;-72
2021/09/05 11:22:20;;;;;;;4.88;3.10;;;25.40;36.60;;;;;;5086055;28;20526;-72
2021/09/05 11:24:46;;;;;;;4.05;3.08;;;25.40;38.10;;;;;;5085466;28;20097;-72
2021/09/05 11:27:15;;;;;;;3.50;2.35;;;25.50;38.60;;;;;;5086183;28;20443;-72
2021/09/05 11:29:41;;;;;;;3.47;2.42;;;25.50;38.30;;;;;;5086356;28;20016;-71
2021/09/05 11:32:11;;;;;;;5.28;2.90;;;25.30;38.20;;;;;;5086062;28;20131;-72
2021/09/05 11:34:39;;;;;;;4.65;2.63;;;25.30;38.40;;;;;;5085889;28;20020;-72
2021/09/05 11:37:05;;;;;;;6.25;2.85;;;25.40;38.70;;;;;;5085830;28;20051;-72
2021/09/05 11:39:32;;;;;;;6.88;3.20;;;25.30;38.90;;;;;;5084426;28;20032;-72
2021/09/05 11:42:02;;;;;;;4.28;2.58;;;25.20;38.00;;;;;;5085571;28;20050;-72
2021/09/05 11:44:36;;;;;;;6.30;2.58;;;25.20;38.70;;;;;;5085850;28;20561;-72
2021/09/05 11:47:09;;;;;;;5.00;3.60;;;25.40;39.60;;;;;;5084818;28;20036;-71
2021/09/05 11:49:45;;;;;;;5.28;3.28;;;25.50;41.00;;;;;;5085650;28;20074;-72
2021/09/05 11:52:11;;;;;;;7.03;3.50;;;25.50;41.10;;;;;;5085717;28;20115;-72
2021/09/05 11:54:36;;;;;;;4.63;3.30;;;25.40;41.30;;;;;;5085530;28;20130;-72
2021/09/05 11:57:02;;;;;;;6.80;3.53;;;25.50;40.60;;;;;;5085527;28;20036;-73
2021/09/05 11:59:28;;;;;;;5.68;3.30;;;25.50;40.10;;;;;;5085794;28;20032;-71
2021/09/05 12:01:54;;;;;;;4.80;3.30;;;25.40;41.10;;;;;;5085884;28;20028;-72
2021/09/05 12:04:20;;;;;;;6.70;2.95;;;25.30;41.60;;;;;;5085826;28;20026;-72
2021/09/05 12:06:46;;;;;;;4.70;3.42;;;25.20;41.80;;;;;;5085778;28;20063;-72
2021/09/05 12:09:24;;;;;;;7.47;3.22;;;25.00;42.10;;;;;;5083740;28;20055;-73
2021/09/05 12:11:57;;;;;;;3.75;2.85;;;25.00;42.40;;;;;;5085710;28;20035;-72
2021/09/05 12:14:31;;;;;;;4.68;2.90;;;25.00;41.40;;;;;;5085976;28;20032;-72
2021/09/05 12:16:57;;;;;;;4.72;2.60;;;25.00;41.60;;;;;;5089786;28;20480;-72
2021/09/05 12:19:23;;;;;;;3.15;2.00;;;25.00;41.60;;;;;;5088729;28;20035;-72
2021/09/05 12:21:59;;;;;;;5.75;2.33;;;25.00;40.10;;;;;;5089317;28;20024;-72
2021/09/05 12:24:25;;;;;;;6.22;2.80;;;25.10;40.30;;;;;;5089174;28;20076;-71
2021/09/05 12:26:51;;;;;;;4.95;3.10;;;25.10;40.00;;;;;;5088990;28;20060;-72
2021/09/05 12:29:32;;;;;;;3.72;2.15;;;25.20;41.00;;;;;;5089372;28;20032;-72
2021/09/05 12:32:03;;;;;;;4.93;2.25;;;25.20;40.40;;;;;;5087776;28;20036;-72
2021/09/05 12:34:42;;;;;;;5.13;2.60;;;25.30;41.30;;;;;;5089205;28;20028;-72
2021/09/05 12:37:20;;;;;;;9.48;2.42;;;25.50;39.50;;;;;;5088623;28;20047;-71
2021/09/05 12:39:51;;;;;;;4.85;2.38;;;25.40;39.90;;;;;;5088808;28;20051;-68
2021/09/05 12:42:19;;;;;;;3.70;2.40;;;25.40;38.90;;;;;;5089351;28;20507;-70
2021/09/05 12:44:52;;;;;;;6.50;2.60;;;25.40;38.90;;;;;;5087636;28;20497;-70
2021/09/05 12:47:27;;;;;;;3.15;2.13;;;25.30;39.20;;;;;;5086342;28;20048;-68